sensor_id;sensor_type;location;lat;lon;timestamp;pressure;altitude;pressure_sealevel;temperature;humidity
76054;BME280;64752;48.870;9.082;2023-05-10T00:00:04;97372.22;;;12.86;100.00
76054;BME280;64752;48.870;9.082;2023-05-10T00:02:30;97363.59;;;12.85;100.00
76054;BME280;64752;48.870;9.082;2023-05-10T00:04:55;97370.66;;;12.83;100.00
76054;BME280;64752;48.870;9.082;2023-05-10T00:07:20;97367.53;;;12.77;100.00
76054;BME280;64752;48.870;9.082;2023-05-10T00:09:46;97374.66;;;12.73;100.00
76054;BME280;64752;48.870;9.082;2023-05-10T00:12:11;97373.16;;;12.69;100.00
76054;BME280;64752;48.870;9.082;2023-05-10T00:14:37;97371.72;;;12.63;100.00
76054;BME280;64752;48.870;9.082;2023-05-10T00:17:02;97365.69;;;12.63;100.00
76054;BME280;64752;48.870;9.082;2023-05-10T00:19:28;97366.84;;;12.57;100.00
76054;BME280;64752;48.870;9.082;2023-05-10T00:21:53;97366.19;;;12.53;100.00
76054;BME280;64752;48.870;9.082;2023-05-10T00:24:18;97364.72;;;12.48;100.00
76054;BME280;64752;48.870;9.082;2023-05-10T00:26:44;97364.81;;;12.46;100.00
76054;BME280;64752;48.870;9.082;2023-05-10T00:29:09;97364.81;;;12.46;100.00
76054;BME280;64752;48.870;9.082;2023-05-10T00:31:35;97363.97;;;12.46;100.00
76054;BME280;64752;48.870;9.082;2023-05-10T00:34:00;97368.50;;;12.42;100.00
76054;BME280;64752;48.870;9.082;2023-05-10T00:36:25;97369.66;;;12.37;100.00
76054;BME280;64752;48.870;9.082;2023-05-10T00:38:51;97370.50;;;12.37;100.00
76054;BME280;64752;48.870;9.082;2023-05-10T00:41:16;97366.38;;;12.33;100.00
76054;BME280;64752;48.870;9.082;2023-05-10T00:43:42;97361.28;;;12.31;100.00
76054;BME280;64752;48.870;9.082;2023-05-10T00:46:07;97376.53;;;12.38;100.00
76054;BME280;64752;48.870;9.082;2023-05-10T00:48:33;97376.03;;;12.31;100.00
76054;BME280;64752;48.870;9.082;2023-05-10T00:51:01;97386.59;;;12.28;100.00
76054;BME280;64752;48.870;9.082;2023-05-10T00:53:26;97389.09;;;12.29;100.00
76054;BME280;64752;48.870;9.082;2023-05-10T00:55:52;97387.50;;;12.27;100.00
76054;BME280;64752;48.870;9.082;2023-05-10T00:58:17;97395.22;;;12.28;100.00
76054;BME280;64752;48.870;9.082;2023-05-10T01:00:43;97400.34;;;12.30;100.00
76054;BME280;64752;48.870;9.082;2023-05-10T01:03:11;97395.97;;;12.30;100.00
76054;BME280;64752;48.870;9.082;2023-05-10T01:05:37;97397.69;;;12.31;100.00
76054;BME280;64752;48.870;9.082;2023-05-10T01:08:03;97407.00;;;12.36;100.00
76054;BME280;64752;48.870;9.082;2023-05-10T01:10:28;97404.47;;;12.34;100.00
76054;BME280;64752;48.870;9.082;2023-05-10T01:12:54;97399.41;;;12.31;100.00
76054;BME280;64752;48.870;9.082;2023-05-10T01:15:20;97396.75;;;12.32;100.00
76054;BME280;64752;48.870;9.082;2023-05-10T01:17:47;97403.53;;;12.35;100.00
76054;BME280;64752;48.870;9.082;2023-05-10T01:20:14;97397.56;;;12.33;100.00
76054;BME280;64752;48.870;9.082;2023-05-10T01:23:16;97406.25;;;12.33;100.00
76054;BME280;64752;48.870;9.082;2023-05-10T01:28:33;97404.47;;;12.34;100.00
76054;BME280;64752;48.870;9.082;2023-05-10T01:36:25;97410.22;;;12.23;100.00
76054;BME280;64752;48.870;9.082;2023-05-10T01:38:58;97411.97;;;12.23;100.00
76054;BME280;64752;48.870;9.082;2023-05-10T01:41:51;97404.41;;;12.18;100.00
76054;BME280;64752;48.870;9.082;2023-05-10T01:44:31;97407.94;;;12.17;100.00
76054;BME280;64752;48.870;9.082;2023-05-10T01:47:28;97411.22;;;12.21;100.00
76054;BME280;64752;48.870;9.082;2023-05-10T01:49:59;97408.84;;;12.16;100.00
76054;BME280;64752;48.870;9.082;2023-05-10T01:52:31;97408.16;;;12.12;100.00
76054;BME280;64752;48.870;9.082;2023-05-10T01:55:03;97414.97;;;12.15;100.00
76054;BME280;64752;48.870;9.082;2023-05-10T01:57:35;97411.53;;;12.14;100.00
76054;BME280;64752;48.870;9.082;2023-05-10T02:00:03;97416.78;;;12.13;100.00
76054;BME280;64752;48.870;9.082;2023-05-10T02:02:31;97424.06;;;12.06;100.00
76054;BME280;64752;48.870;9.082;2023-05-10T02:04:59;97424.69;;;12.11;100.00
76054;BME280;64752;48.870;9.082;2023-05-10T02:07:26;97435.66;;;12.17;100.00
76054;BME280;64752;48.870;9.082;2023-05-10T02:09:53;97432.78;;;12.05;100.00
76054;BME280;64752;48.870;9.082;2023-05-10T02:12:20;97426.97;;;12.00;100.00
76054;BME280;64752;48.870;9.082;2023-05-10T02:14:46;97433.47;;;12.09;100.00
76054;BME280;64752;48.870;9.082;2023-05-10T02:17:12;97434.69;;;12.02;100.00
76054;BME280;64752;48.870;9.082;2023-05-10T02:19:40;97428.72;;;12.00;100.00
76054;BME280;64752;48.870;9.082;2023-05-10T02:22:07;97426.44;;;11.93;100.00
76054;BME280;64752;48.870;9.082;2023-05-10T02:24:34;97425.50;;;11.94;100.00
76054;BME280;64752;48.870;9.082;2023-05-10T02:27:02;97434.75;;;12.00;100.00
76054;BME280;64752;48.870;9.082;2023-05-10T02:29:29;97437.34;;;12.00;100.00
76054;BME280;64752;48.870;9.082;2023-05-10T02:31:57;97444.19;;;12.03;100.00
76054;BME280;64752;48.870;9.082;2023-05-10T02:34:23;97446.78;;;12.03;100.00
76054;BME280;64752;48.870;9.082;2023-05-10T02:36:50;97458.75;;;12.05;100.00
76054;BME280;64752;48.870;9.082;2023-05-10T02:39:19;97463.06;;;12.06;100.00
76054;BME280;64752;48.870;9.082;2023-05-10T02:41:47;97457.03;;;12.06;100.00
76054;BME280;64752;48.870;9.082;2023-05-10T02:44:15;97454.19;;;12.10;100.00
76054;BME280;64752;48.870;9.082;2023-05-10T02:46:42;97458.22;;;12.16;100.00
76054;BME280;64752;48.870;9.082;2023-05-10T02:49:08;97454.81;;;12.15;100.00
76054;BME280;64752;48.870;9.082;2023-05-10T02:51:36;97458.22;;;12.16;100.00
76054;BME280;64752;48.870;9.082;2023-05-10T02:54:08;97459.38;;;12.10;100.00
76054;BME280;64752;48.870;9.082;2023-05-10T02:56:36;97456.03;;;12.08;100.00
76054;BME280;64752;48.870;9.082;2023-05-10T02:59:05;97460.22;;;12.11;100.00
76054;BME280;64752;48.870;9.082;2023-05-10T03:01:30;97459.44;;;12.09;100.00
76054;BME280;64752;48.870;9.082;2023-05-10T03:03:55;97455.94;;;12.10;100.00
76054;BME280;64752;48.870;9.082;2023-05-10T03:06:21;97464.50;;;12.12;100.00
76054;BME280;64752;48.870;9.082;2023-05-10T03:08:46;97452.19;;;12.15;100.00
76054;BME280;64752;48.870;9.082;2023-05-10T03:14:31;97467.09;;;12.12;100.00
76054;BME280;64752;48.870;9.082;2023-05-10T03:19:56;97467.88;;;12.14;100.00
76054;BME280;64752;48.870;9.082;2023-05-10T03:22:30;97467.72;;;12.17;100.00
76054;BME280;64752;48.870;9.082;2023-05-10T03:24:56;97469.47;;;12.17;100.00
76054;BME280;64752;48.870;9.082;2023-05-10T03:27:25;97474.84;;;12.13;100.00
76054;BME280;64752;48.870;9.082;2023-05-10T03:29:52;97474.75;;;12.15;100.00
76054;BME280;64752;48.870;9.082;2023-05-10T03:32:18;97474.97;;;12.10;100.00
76054;BME280;64752;48.870;9.082;2023-05-10T03:34:44;97474.97;;;12.10;100.00
76054;BME280;64752;48.870;9.082;2023-05-10T03:37:09;97473.06;;;12.14;100.00
76054;BME280;64752;48.870;9.082;2023-05-10T03:39:35;97469.25;;;12.21;100.00
76054;BME280;64752;48.870;9.082;2023-05-10T03:42:00;97469.84;;;12.26;100.00
76054;BME280;64752;48.870;9.082;2023-05-10T03:44:25;97482.69;;;12.29;100.00
76054;BME280;64752;48.870;9.082;2023-05-10T03:46:51;97478.34;;;12.30;100.00
76054;BME280;64752;48.870;9.082;2023-05-10T03:49:17;97481.63;;;12.33;100.00
76054;BME280;64752;48.870;9.082;2023-05-10T03:51:43;97480.19;;;12.28;100.00
76054;BME280;64752;48.870;9.082;2023-05-10T03:54:08;97482.59;;;12.31;100.00
76054;BME280;64752;48.870;9.082;2023-05-10T03:56:33;97484.44;;;12.29;100.00
76054;BME280;64752;48.870;9.082;2023-05-10T03:58:59;97485.22;;;12.31;100.00
76054;BME280;64752;48.870;9.082;2023-05-10T04:01:24;97490.66;;;12.26;100.00
76054;BME280;64752;48.870;9.082;2023-05-10T04:03:49;97486.38;;;12.25;100.00
76054;BME280;64752;48.870;9.082;2023-05-10T04:06:15;97489.56;;;12.30;100.00
76054;BME280;64752;48.870;9.082;2023-05-10T04:08:40;97493.31;;;12.25;100.00
76054;BME280;64752;48.870;9.082;2023-05-10T04:11:07;97492.41;;;12.26;100.00
76054;BME280;64752;48.870;9.082;2023-05-10T04:13:32;97486.28;;;12.27;100.00
76054;BME280;64752;48.870;9.082;2023-05-10T04:15:58;97496.63;;;12.28;100.00
76054;BME280;64752;48.870;9.082;2023-05-10T04:18:23;97490.94;;;12.20;100.00
76054;BME280;64752;48.870;9.082;2023-05-10T04:20:48;97488.88;;;12.27;100.00
76054;BME280;64752;48.870;9.082;2023-05-10T04:23:14;97494.41;;;12.21;100.00
76054;BME280;64752;48.870;9.082;2023-05-10T04:25:41;97488.19;;;12.23;100.00
76054;BME280;64752;48.870;9.082;2023-05-10T04:28:07;97497.97;;;12.18;100.00
76054;BME280;64752;48.870;9.082;2023-05-10T04:30:32;97494.47;;;12.19;100.00
76054;BME280;64752;48.870;9.082;2023-05-10T04:32:57;97499.97;;;12.30;99.31
76054;BME280;64752;48.870;9.082;2023-05-10T04:35:23;97496.06;;;12.39;99.00
76054;BME280;64752;48.870;9.082;2023-05-10T04:37:48;97498.75;;;12.38;99.45
76054;BME280;64752;48.870;9.082;2023-05-10T04:40:14;97503.56;;;12.45;98.60
76054;BME280;64752;48.870;9.082;2023-05-10T04:42:40;97509.53;;;12.47;99.42
76054;BME280;64752;48.870;9.082;2023-05-10T04:45:06;97508.69;;;12.47;98.67
76054;BME280;64752;48.870;9.082;2023-05-10T04:47:32;97503.47;;;12.47;99.44
76054;BME280;64752;48.870;9.082;2023-05-10T04:49:58;97509.03;;;12.57;98.77
76054;BME280;64752;48.870;9.082;2023-05-10T04:52:23;97515.00;;;12.59;99.89
76054;BME280;64752;48.870;9.082;2023-05-10T04:54:49;97518.06;;;12.67;99.05
76054;BME280;64752;48.870;9.082;2023-05-10T04:57:14;97521.34;;;12.70;99.01
76054;BME280;64752;48.870;9.082;2023-05-10T04:59:40;97522.75;;;12.60;98.58
76054;BME280;64752;48.870;9.082;2023-05-10T05:02:05;97513.50;;;12.54;99.18
76054;BME280;64752;48.870;9.082;2023-05-10T05:04:31;97522.66;;;12.62;98.97
76054;BME280;64752;48.870;9.082;2023-05-10T05:06:56;97523.19;;;12.68;99.21
76054;BME280;64752;48.870;9.082;2023-05-10T05:09:28;97533.34;;;12.73;98.80
76054;BME280;64752;48.870;9.082;2023-05-10T05:11:53;97525.00;;;12.84;98.60
76054;BME280;64752;48.870;9.082;2023-05-10T05:14:19;97520.56;;;12.86;98.42
76054;BME280;64752;48.870;9.082;2023-05-10T05:16:45;97526.41;;;13.07;97.64
76054;BME280;64752;48.870;9.082;2023-05-10T05:19:11;97532.63;;;13.20;95.82
76054;BME280;64752;48.870;9.082;2023-05-10T05:21:36;97534.97;;;13.25;95.93
76054;BME280;64752;48.870;9.082;2023-05-10T05:24:02;97536.38;;;13.32;95.40
76054;BME280;64752;48.870;9.082;2023-05-10T05:26:27;97537.72;;;13.39;95.38
76054;BME280;64752;48.870;9.082;2023-05-10T05:28:53;97523.38;;;13.48;95.10
76054;BME280;64752;48.870;9.082;2023-05-10T05:31:19;97539.50;;;13.39;95.62
76054;BME280;64752;48.870;9.082;2023-05-10T05:33:45;97539.16;;;13.45;94.99
76054;BME280;64752;48.870;9.082;2023-05-10T05:36:10;97538.13;;;13.32;95.08
76054;BME280;64752;48.870;9.082;2023-05-10T05:38:36;97541.16;;;13.40;94.75
76054;BME280;64752;48.870;9.082;2023-05-10T05:41:01;97535.31;;;13.36;94.56
76054;BME280;64752;48.870;9.082;2023-05-10T05:43:28;97538.06;;;13.49;95.46
76054;BME280;64752;48.870;9.082;2023-05-10T05:45:54;97537.28;;;13.47;94.29
76054;BME280;64752;48.870;9.082;2023-05-10T05:48:20;97544.69;;;13.39;94.59
76054;BME280;64752;48.870;9.082;2023-05-10T05:50:45;97542.69;;;13.44;94.33
76054;BME280;64752;48.870;9.082;2023-05-10T05:53:11;97537.56;;;13.58;93.58
76054;BME280;64752;48.870;9.082;2023-05-10T05:55:37;97544.22;;;13.64;94.62
76054;BME280;64752;48.870;9.082;2023-05-10T05:58:02;97543.59;;;13.75;94.04
76054;BME280;64752;48.870;9.082;2023-05-10T06:00:28;97538.72;;;13.68;92.35
76054;BME280;64752;48.870;9.082;2023-05-10T06:02:53;97546.13;;;13.76;91.65
76054;BME280;64752;48.870;9.082;2023-05-10T06:05:19;97548.81;;;13.75;92.26
76054;BME280;64752;48.870;9.082;2023-05-10T06:07:45;97551.75;;;13.84;90.97
76054;BME280;64752;48.870;9.082;2023-05-10T06:10:11;97553.63;;;13.82;91.67
76054;BME280;64752;48.870;9.082;2023-05-10T06:12:36;97545.44;;;13.73;91.81
76054;BME280;64752;48.870;9.082;2023-05-10T06:15:02;97550.50;;;13.76;90.63
76054;BME280;64752;48.870;9.082;2023-05-10T06:17:28;97550.75;;;13.87;90.69
76054;BME280;64752;48.870;9.082;2023-05-10T06:19:53;97563.44;;;13.93;91.58
76054;BME280;64752;48.870;9.082;2023-05-10T06:22:19;97561.25;;;14.01;90.48
76054;BME280;64752;48.870;9.082;2023-05-10T06:24:44;97566.19;;;14.06;89.36
76054;BME280;64752;48.870;9.082;2023-05-10T06:27:09;97564.38;;;14.22;90.18
76054;BME280;64752;48.870;9.082;2023-05-10T06:29:35;97572.63;;;14.31;89.14
76054;BME280;64752;48.870;9.082;2023-05-10T06:32:00;97566.38;;;14.33;87.82
76054;BME280;64752;48.870;9.082;2023-05-10T06:34:26;97563.16;;;14.44;88.05
76054;BME280;64752;48.870;9.082;2023-05-10T06:36:51;97565.91;;;14.57;87.95
76054;BME280;64752;48.870;9.082;2023-05-10T06:39:17;97555.53;;;14.55;86.85
76054;BME280;64752;48.870;9.082;2023-05-10T06:41:42;97564.06;;;14.59;87.22
76054;BME280;64752;48.870;9.082;2023-05-10T06:44:08;97556.66;;;14.51;86.57
76054;BME280;64752;48.870;9.082;2023-05-10T06:46:33;97572.34;;;14.81;85.51
76054;BME280;64752;48.870;9.082;2023-05-10T06:48:59;97566.16;;;14.82;86.63
76054;BME280;64752;48.870;9.082;2023-05-10T06:51:24;97567.56;;;14.88;85.50
76054;BME280;64752;48.870;9.082;2023-05-10T06:53:50;97569.44;;;14.86;86.58
76054;BME280;64752;48.870;9.082;2023-05-10T06:56:15;97569.56;;;15.13;86.13
76054;BME280;64752;48.870;9.082;2023-05-10T06:58:40;97577.47;;;15.26;85.97
76054;BME280;64752;48.870;9.082;2023-05-10T07:01:06;97573.09;;;15.41;85.41
76054;BME280;64752;48.870;9.082;2023-05-10T07:03:31;97577.19;;;15.31;85.43
76054;BME280;64752;48.870;9.082;2023-05-10T07:06:03;97574.47;;;15.75;83.51
76054;BME280;64752;48.870;9.082;2023-05-10T07:08:35;97572.84;;;15.73;82.15
76054;BME280;64752;48.870;9.082;2023-05-10T07:11:05;97574.81;;;15.69;82.65
76054;BME280;64752;48.870;9.082;2023-05-10T07:13:32;97575.66;;;16.11;80.98
76054;BME280;64752;48.870;9.082;2023-05-10T07:15:59;97582.38;;;16.15;80.55
76054;BME280;64752;48.870;9.082;2023-05-10T07:18:25;97576.50;;;16.12;80.07
76054;BME280;64752;48.870;9.082;2023-05-10T07:20:50;97580.84;;;15.98;79.58
76054;BME280;64752;48.870;9.082;2023-05-10T07:23:16;97578.91;;;16.15;80.77
76054;BME280;64752;48.870;9.082;2023-05-10T07:25:45;97583.41;;;16.13;78.51
76054;BME280;64752;48.870;9.082;2023-05-10T07:28:11;97576.84;;;16.20;76.31
76054;BME280;64752;48.870;9.082;2023-05-10T07:30:36;97582.78;;;16.09;77.33
76054;BME280;64752;48.870;9.082;2023-05-10T07:33:02;97591.81;;;16.58;75.29
76054;BME280;64752;48.870;9.082;2023-05-10T07:35:27;97586.31;;;16.35;74.86
76054;BME280;64752;48.870;9.082;2023-05-10T07:37:52;97587.78;;;16.27;74.48
76054;BME280;64752;48.870;9.082;2023-05-10T07:40:18;97587.97;;;16.24;75.15
76054;BME280;64752;48.870;9.082;2023-05-10T07:42:43;97591.94;;;16.02;75.87
76054;BME280;64752;48.870;9.082;2023-05-10T07:45:09;97594.53;;;16.16;75.52
76054;BME280;64752;48.870;9.082;2023-05-10T07:47:34;97591.25;;;15.86;77.00
76054;BME280;64752;48.870;9.082;2023-05-10T07:50:00;97600.84;;;16.27;75.29
76054;BME280;64752;48.870;9.082;2023-05-10T07:52:25;97597.88;;;16.46;75.10
76054;BME280;64752;48.870;9.082;2023-05-10T07:54:50;97597.81;;;16.60;73.45
76054;BME280;64752;48.870;9.082;2023-05-10T07:57:17;97600.72;;;16.55;74.63
76054;BME280;64752;48.870;9.082;2023-05-10T07:59:43;97601.50;;;16.83;72.51
76054;BME280;64752;48.870;9.082;2023-05-10T08:02:09;97606.47;;;17.01;70.42
76054;BME280;64752;48.870;9.082;2023-05-10T08:04:34;97602.44;;;16.82;71.31
76054;BME280;64752;48.870;9.082;2023-05-10T08:07:00;97600.66;;;16.43;70.06
76054;BME280;64752;48.870;9.082;2023-05-10T08:09:25;97608.34;;;16.46;72.16
76054;BME280;64752;48.870;9.082;2023-05-10T08:11:50;97608.16;;;15.80;71.94
76054;BME280;64752;48.870;9.082;2023-05-10T08:14:16;97610.06;;;16.05;72.13
76054;BME280;64752;48.870;9.082;2023-05-10T08:16:42;97603.00;;;15.93;73.14
76054;BME280;64752;48.870;9.082;2023-05-10T08:19:07;97612.97;;;16.00;72.81
76054;BME280;64752;48.870;9.082;2023-05-10T08:21:33;97610.16;;;16.31;71.30
76054;BME280;64752;48.870;9.082;2023-05-10T08:23:58;97603.56;;;15.98;70.18
76054;BME280;64752;48.870;9.082;2023-05-10T08:26:23;97615.25;;;15.92;71.97
76054;BME280;64752;48.870;9.082;2023-05-10T08:28:49;97619.34;;;15.82;71.54
76054;BME280;64752;48.870;9.082;2023-05-10T08:31:15;97611.34;;;15.85;72.35
76054;BME280;64752;48.870;9.082;2023-05-10T08:33:41;97623.75;;;16.23;71.61
76054;BME280;64752;48.870;9.082;2023-05-10T08:36:06;97615.00;;;16.77;69.06
76054;BME280;64752;48.870;9.082;2023-05-10T08:38:32;97622.38;;;16.57;69.09
76054;BME280;64752;48.870;9.082;2023-05-10T08:40:57;97619.78;;;17.10;68.75
76054;BME280;64752;48.870;9.082;2023-05-10T08:43:26;97620.81;;;16.95;67.77
76054;BME280;64752;48.870;9.082;2023-05-10T08:45:54;97620.31;;;17.15;66.43
76054;BME280;64752;48.870;9.082;2023-05-10T08:48:21;97628.25;;;17.01;67.10
76054;BME280;64752;48.870;9.082;2023-05-10T08:50:48;97618.22;;;17.46;63.65
76054;BME280;64752;48.870;9.082;2023-05-10T08:53:16;97625.34;;;17.44;64.91
76054;BME280;64752;48.870;9.082;2023-05-10T08:55:42;97628.22;;;17.91;62.46
76054;BME280;64752;48.870;9.082;2023-05-10T08:58:09;97616.69;;;18.18;61.48
76054;BME280;64752;48.870;9.082;2023-05-10T09:00:35;97623.72;;;17.67;61.93
76054;BME280;64752;48.870;9.082;2023-05-10T09:03:02;97630.66;;;17.68;64.12
76054;BME280;64752;48.870;9.082;2023-05-10T09:05:27;97634.59;;;18.00;62.06
76054;BME280;64752;48.870;9.082;2023-05-10T09:07:53;97643.19;;;18.74;61.04
76054;BME280;64752;48.870;9.082;2023-05-10T09:10:19;97637.31;;;18.35;60.63
76054;BME280;64752;48.870;9.082;2023-05-10T09:12:45;97634.78;;;18.34;61.46
76054;BME280;64752;48.870;9.082;2023-05-10T09:15:12;97639.31;;;18.56;60.53
76054;BME280;64752;48.870;9.082;2023-05-10T09:17:40;97639.31;;;18.56;60.42
76054;BME280;64752;48.870;9.082;2023-05-10T09:20:06;97648.38;;;17.78;62.31
76054;BME280;64752;48.870;9.082;2023-05-10T09:22:34;97655.41;;;17.39;64.90
76054;BME280;64752;48.870;9.082;2023-05-10T09:25:04;97646.06;;;18.47;61.66
76054;BME280;64752;48.870;9.082;2023-05-10T09:27:30;97653.19;;;18.69;61.63
76054;BME280;64752;48.870;9.082;2023-05-10T09:29:55;97648.94;;;19.03;59.26
76054;BME280;64752;48.870;9.082;2023-05-10T09:32:21;97653.75;;;18.85;59.71
76054;BME280;64752;48.870;9.082;2023-05-10T09:34:49;97644.63;;;18.78;59.50
76054;BME280;64752;48.870;9.082;2023-05-10T09:37:14;97645.00;;;18.74;61.55
76054;BME280;64752;48.870;9.082;2023-05-10T09:39:40;97650.16;;;18.51;60.91
76054;BME280;64752;48.870;9.082;2023-05-10T09:42:08;97658.34;;;17.85;63.68
76054;BME280;64752;48.870;9.082;2023-05-10T09:44:34;97655.94;;;17.57;64.58
76054;BME280;64752;48.870;9.082;2023-05-10T09:47:01;97652.56;;;17.03;67.14
76054;BME280;64752;48.870;9.082;2023-05-10T09:49:27;97651.72;;;16.63;67.72
76054;BME280;64752;48.870;9.082;2023-05-10T09:52:07;97660.53;;;17.14;65.78
76054;BME280;64752;48.870;9.082;2023-05-10T09:54:34;97658.56;;;17.44;65.65
76054;BME280;64752;48.870;9.082;2023-05-10T09:57:00;97662.84;;;17.83;63.98
76054;BME280;64752;48.870;9.082;2023-05-10T09:59:26;97666.13;;;17.87;63.48
76054;BME280;64752;48.870;9.082;2023-05-10T10:01:59;97664.22;;;17.38;65.16
76054;BME280;64752;48.870;9.082;2023-05-10T10:04:25;97666.09;;;17.74;63.46
76054;BME280;64752;48.870;9.082;2023-05-10T10:07:04;97670.09;;;17.41;63.78
76054;BME280;64752;48.870;9.082;2023-05-10T10:09:30;97664.75;;;17.17;65.69
76054;BME280;64752;48.870;9.082;2023-05-10T10:11:56;97669.78;;;17.59;64.33
76054;BME280;64752;48.870;9.082;2023-05-10T10:14:22;97663.16;;;17.79;63.75
76054;BME280;64752;48.870;9.082;2023-05-10T10:16:49;97664.66;;;17.31;63.64
76054;BME280;64752;48.870;9.082;2023-05-10T10:19:17;97672.09;;;17.38;64.22
76054;BME280;64752;48.870;9.082;2023-05-10T10:21:43;97666.94;;;18.24;61.19
76054;BME280;64752;48.870;9.082;2023-05-10T10:24:08;97664.84;;;18.54;59.74
76054;BME280;64752;48.870;9.082;2023-05-10T10:26:35;97659.13;;;18.36;58.50
76054;BME280;64752;48.870;9.082;2023-05-10T10:29:15;97658.19;;;18.61;58.39
76054;BME280;64752;48.870;9.082;2023-05-10T10:31:47;97660.47;;;18.65;57.60
76054;BME280;64752;48.870;9.082;2023-05-10T10:34:25;97665.66;;;18.30;61.26
76054;BME280;64752;48.870;9.082;2023-05-10T10:36:52;97660.03;;;17.22;62.69
76054;BME280;64752;48.870;9.082;2023-05-10T10:39:18;97659.34;;;17.83;60.76
76054;BME280;64752;48.870;9.082;2023-05-10T10:41:54;97653.75;;;17.50;60.75
76054;BME280;64752;48.870;9.082;2023-05-10T10:44:34;97662.03;;;17.19;61.99
76054;BME280;64752;48.870;9.082;2023-05-10T10:49:43;97669.22;;;16.62;63.44
76054;BME280;64752;48.870;9.082;2023-05-10T10:55:07;97668.22;;;17.30;61.20
76054;BME280;64752;48.870;9.082;2023-05-10T10:57:44;97664.38;;;18.36;58.49
76054;BME280;64752;48.870;9.082;2023-05-10T11:02:46;97666.63;;;19.13;54.62
76054;BME280;64752;48.870;9.082;2023-05-10T11:07:55;97663.44;;;21.61;50.90
76054;BME280;64752;48.870;9.082;2023-05-10T11:10:25;97666.00;;;20.56;53.33
76054;BME280;64752;48.870;9.082;2023-05-10T11:12:58;97655.25;;;21.12;51.37
76054;BME280;64752;48.870;9.082;2023-05-10T11:15:33;97665.69;;;20.60;50.55
76054;BME280;64752;48.870;9.082;2023-05-10T11:17:59;97665.84;;;19.57;51.14
76054;BME280;64752;48.870;9.082;2023-05-10T11:20:28;97671.09;;;20.25;49.75
76054;BME280;64752;48.870;9.082;2023-05-10T11:23:10;97664.22;;;21.73;45.42
76054;BME280;64752;48.870;9.082;2023-05-10T11:25:43;97666.16;;;22.21;45.12
76054;BME280;64752;48.870;9.082;2023-05-10T11:28:10;97669.22;;;21.45;46.55
76054;BME280;64752;48.870;9.082;2023-05-10T11:30:37;97662.88;;;21.98;44.31
76054;BME280;64752;48.870;9.082;2023-05-10T11:33:03;97665.25;;;22.32;43.58
76054;BME280;64752;48.870;9.082;2023-05-10T11:35:28;97671.91;;;20.80;46.27
76054;BME280;64752;48.870;9.082;2023-05-10T11:37:54;97663.63;;;19.75;48.46
76054;BME280;64752;48.870;9.082;2023-05-10T11:40:21;97670.66;;;20.20;48.78
76054;BME280;64752;48.870;9.082;2023-05-10T11:42:49;97675.03;;;20.86;48.56
76054;BME280;64752;48.870;9.082;2023-05-10T11:45:15;97670.91;;;20.72;49.21
76054;BME280;64752;48.870;9.082;2023-05-10T11:47:40;97672.41;;;21.28;47.87
76054;BME280;64752;48.870;9.082;2023-05-10T11:50:09;97672.69;;;21.25;47.49
76054;BME280;64752;48.870;9.082;2023-05-10T11:52:37;97683.22;;;20.60;48.85
76054;BME280;64752;48.870;9.082;2023-05-10T11:55:03;97672.94;;;18.99;53.28
76054;BME280;64752;48.870;9.082;2023-05-10T11:57:28;97675.13;;;19.74;52.28
76054;BME280;64752;48.870;9.082;2023-05-10T11:59:54;97681.00;;;18.60;55.16
76054;BME280;64752;48.870;9.082;2023-05-10T12:02:21;97682.97;;;18.45;55.40
76054;BME280;64752;48.870;9.082;2023-05-10T12:04:47;97682.06;;;18.21;54.51
76054;BME280;64752;48.870;9.082;2023-05-10T12:07:12;97675.75;;;18.60;54.27
76054;BME280;64752;48.870;9.082;2023-05-10T12:09:43;97680.38;;;19.86;51.39
76054;BME280;64752;48.870;9.082;2023-05-10T12:12:08;97686.00;;;18.87;51.66
76054;BME280;64752;48.870;9.082;2023-05-10T12:14:35;97687.66;;;19.13;50.82
76054;BME280;64752;48.870;9.082;2023-05-10T12:17:00;97682.34;;;19.37;49.62
76054;BME280;64752;48.870;9.082;2023-05-10T12:19:26;97691.00;;;19.15;49.06
76054;BME280;64752;48.870;9.082;2023-05-10T12:21:51;97689.09;;;19.17;49.75
76054;BME280;64752;48.870;9.082;2023-05-10T12:24:16;97693.16;;;19.79;47.95
76054;BME280;64752;48.870;9.082;2023-05-10T12:26:45;97699.16;;;18.87;50.89
76054;BME280;64752;48.870;9.082;2023-05-10T12:29:15;97699.78;;;19.26;50.50
76054;BME280;64752;48.870;9.082;2023-05-10T12:31:54;97702.81;;;19.09;51.17
76054;BME280;64752;48.870;9.082;2023-05-10T12:34:30;97706.41;;;19.66;49.59
76054;BME280;64752;48.870;9.082;2023-05-10T12:36:56;97706.03;;;19.01;50.63
76054;BME280;64752;48.870;9.082;2023-05-10T12:39:23;97706.59;;;19.29;50.65
76054;BME280;64752;48.870;9.082;2023-05-10T12:41:48;97707.28;;;18.84;51.64
76054;BME280;64752;48.870;9.082;2023-05-10T12:44:14;97703.34;;;19.95;49.98
76054;BME280;64752;48.870;9.082;2023-05-10T12:46:39;97702.41;;;20.51;49.74
76054;BME280;64752;48.870;9.082;2023-05-10T12:49:05;97711.03;;;19.40;52.29
76054;BME280;64752;48.870;9.082;2023-05-10T12:51:30;97706.09;;;20.05;52.30
76054;BME280;64752;48.870;9.082;2023-05-10T12:53:56;97697.78;;;19.41;51.21
76054;BME280;64752;48.870;9.082;2023-05-10T12:56:21;97705.19;;;20.38;49.92
76054;BME280;64752;48.870;9.082;2023-05-10T12:58:47;97707.28;;;19.20;51.28
76054;BME280;64752;48.870;9.082;2023-05-10T13:01:13;97693.75;;;20.28;50.47
76054;BME280;64752;48.870;9.082;2023-05-10T13:03:39;97698.16;;;19.01;52.18
76054;BME280;64752;48.870;9.082;2023-05-10T13:06:04;97701.38;;;19.05;53.01
76054;BME280;64752;48.870;9.082;2023-05-10T13:08:30;97698.38;;;20.35;50.68
76054;BME280;64752;48.870;9.082;2023-05-10T13:11:01;97695.31;;;20.74;48.57
76054;BME280;64752;48.870;9.082;2023-05-10T13:13:27;97699.69;;;20.41;48.28
76054;BME280;64752;48.870;9.082;2023-05-10T13:15:53;97691.97;;;20.72;48.72
76054;BME280;64752;48.870;9.082;2023-05-10T13:18:18;97698.66;;;20.76;48.22
76054;BME280;64752;48.870;9.082;2023-05-10T13:20:44;97691.94;;;20.28;48.18